createdAt,value
2023-05-05T00:00:18.345Z,90.654167
2023-05-05T00:05:18.790Z,90.783333
2023-05-05T00:10:18.530Z,90.875000
2023-05-05T00:15:18.374Z,90.916667
2023-05-05T00:20:18.424Z,90.866667
2023-05-05T00:25:18.305Z,90.958333
2023-05-05T00:30:18.250Z,91.062500
2023-05-05T00:35:18.562Z,90.966667
2023-05-05T00:40:18.331Z,90.875000
2023-05-05T00:45:18.311Z,91.366667
2023-05-05T00:50:18.731Z,91.229167
2023-05-05T00:55:18.363Z,91.058333
2023-05-05T01:00:18.355Z,91.645833
2023-05-05T01:05:18.496Z,91.637500
2023-05-05T01:10:20.745Z,91.283333
2023-05-05T01:15:18.708Z,90.975000
2023-05-05T01:20:18.516Z,91.525000
2023-05-05T01:25:18.684Z,91.245833
2023-05-05T01:30:18.838Z,91.491667
2023-05-05T01:35:18.514Z,91.237500
2023-05-05T01:40:18.492Z,91.387500
2023-05-05T01:45:18.229Z,91.300000
2023-05-05T01:50:18.544Z,91.250000
2023-05-05T01:55:18.349Z,91.820833
2023-05-05T02:00:18.389Z,91.645833
2023-05-05T02:05:18.508Z,91.308333
2023-05-05T02:10:18.248Z,91.595833
2023-05-05T02:15:18.455Z,91.629167
2023-05-05T02:20:18.406Z,91.666667
2023-05-05T02:25:18.709Z,91.760000
2023-05-05T02:30:18.398Z,91.770833
2023-05-05T02:35:18.265Z,91.612500
2023-05-05T02:40:18.312Z,91.795833
2023-05-05T02:45:18.514Z,91.804167
2023-05-05T02:50:18.726Z,91.687500
2023-05-05T02:55:18.431Z,91.800000
2023-05-05T03:00:18.283Z,92.062500
2023-05-05T03:05:18.305Z,92.266667
2023-05-05T03:10:18.968Z,91.696000
2023-05-05T03:15:18.317Z,92.083333
2023-05-05T03:20:18.562Z,91.954167
2023-05-05T03:25:18.284Z,91.816000
2023-05-05T03:30:18.384Z,91.766667
2023-05-05T03:35:18.253Z,91.916667
2023-05-05T03:40:18.374Z,92.008333
2023-05-05T03:45:18.299Z,91.941667
2023-05-05T03:50:18.551Z,92.079167
2023-05-05T03:55:18.502Z,91.816667
2023-05-05T04:00:19.146Z,92.166667
2023-05-05T04:05:18.814Z,92.520833
2023-05-05T04:10:18.378Z,92.475000
2023-05-05T04:15:18.250Z,92.241667
2023-05-05T04:20:18.631Z,92.450000
2023-05-05T04:25:18.275Z,92.454167
2023-05-05T04:30:18.521Z,92.333333
2023-05-05T04:35:18.229Z,92.116667
2023-05-05T04:40:18.205Z,92.570833
2023-05-05T04:45:18.290Z,92.729167
2023-05-05T04:50:18.311Z,92.833333
2023-05-05T04:55:18.479Z,92.845833
2023-05-05T05:00:18.250Z,92.745833
2023-05-05T05:05:18.326Z,92.645833
2023-05-05T05:10:18.291Z,92.733333
2023-05-05T05:15:18.391Z,92.704167
2023-05-05T05:20:18.698Z,92.579167
2023-05-05T05:25:18.299Z,92.725000
2023-05-05T05:30:18.339Z,92.812500
2023-05-05T05:35:18.458Z,92.929167
2023-05-05T05:40:18.686Z,92.283333
2023-05-05T05:45:18.235Z,91.083333
2023-05-05T05:50:18.573Z,90.000000
2023-05-05T05:55:18.343Z,88.970833
2023-05-05T06:00:18.339Z,87.662500
2023-05-05T06:05:18.669Z,86.762500
2023-05-05T06:10:26.454Z,84.295833
2023-05-05T06:15:18.650Z,83.066667
2023-05-05T06:20:18.428Z,80.208333
2023-05-05T06:25:18.633Z,78.852000
2023-05-05T06:30:18.249Z,78.566667
2023-05-05T06:35:18.327Z,78.225000
2023-05-05T06:40:18.827Z,76.166667
2023-05-05T06:45:18.284Z,75.683333
2023-05-05T06:50:18.460Z,73.700000
2023-05-05T06:55:18.426Z,73.337500
2023-05-05T07:00:18.176Z,72.029167
2023-05-05T07:05:18.307Z,70.620833
2023-05-05T07:10:18.427Z,69.416667
2023-05-05T07:15:27.943Z,68.212500
2023-05-05T07:20:18.538Z,68.350000
2023-05-05T07:25:18.244Z,67.166667
2023-05-05T07:30:19.348Z,66.208333
2023-05-05T07:35:18.493Z,65.683333
2023-05-05T07:40:18.204Z,64.104167
2023-05-05T07:45:18.184Z,65.541667
2023-05-05T07:50:18.166Z,65.054167
2023-05-05T07:55:18.364Z,64.787500
2023-05-05T08:00:18.255Z,64.533333
2023-05-05T08:05:18.328Z,63.904167
2023-05-05T08:10:18.143Z,63.070833
2023-05-05T08:15:18.619Z,64.270833
2023-05-05T08:20:18.252Z,61.862500
2023-05-05T08:25:18.276Z,62.683333
2023-05-05T08:30:18.248Z,60.391667
2023-05-05T08:35:18.548Z,59.050000
2023-05-05T08:40:18.201Z,56.925000
2023-05-05T08:45:18.120Z,57.212500
2023-05-05T08:50:18.274Z,59.058333
2023-05-05T08:55:18.182Z,59.620833
2023-05-05T09:00:18.079Z,58.104167
2023-05-05T09:05:18.177Z,55.737500
2023-05-05T09:10:18.571Z,55.533333
2023-05-05T09:15:18.256Z,55.125000
2023-05-05T09:20:18.157Z,56.800000
2023-05-05T09:25:18.212Z,53.780000
2023-05-05T09:30:18.305Z,53.225000
2023-05-05T09:35:18.748Z,57.429167
2023-05-05T09:40:18.545Z,51.454167
2023-05-05T09:45:18.646Z,53.191667
2023-05-05T09:50:18.306Z,56.912500
2023-05-05T09:55:18.161Z,55.252000
2023-05-05T10:00:18.114Z,52.033333
2023-05-05T10:05:18.202Z,53.200000
2023-05-05T10:10:18.398Z,54.750000
2023-05-05T10:15:18.048Z,51.679167
2023-05-05T10:20:18.166Z,52.816667
2023-05-05T10:25:18.554Z,52.636000
2023-05-05T10:30:18.206Z,51.341667
2023-05-05T10:35:18.126Z,52.183333
2023-05-05T10:40:18.259Z,51.900000
2023-05-05T10:45:18.091Z,51.316667
2023-05-05T10:50:18.155Z,51.033333
2023-05-05T10:55:18.401Z,53.166667
2023-05-05T11:00:18.229Z,51.283333
2023-05-05T11:05:18.638Z,52.287500
2023-05-05T11:10:18.497Z,52.308333
2023-05-05T11:15:18.452Z,48.558333
2023-05-05T11:20:18.126Z,50.220833
2023-05-05T11:25:18.338Z,48.433333
2023-05-05T11:30:18.126Z,49.745833
2023-05-05T11:35:18.425Z,50.012500
2023-05-05T11:40:18.519Z,50.750000
2023-05-05T11:45:18.160Z,51.725000
2023-05-05T11:50:18.738Z,50.512500
2023-05-05T11:55:18.156Z,52.991667
2023-05-05T12:00:18.148Z,51.366667
2023-05-05T12:05:18.340Z,47.400000
2023-05-05T12:10:18.220Z,48.679167
2023-05-05T12:15:18.229Z,49.925000
2023-05-05T12:20:18.124Z,48.241667
2023-05-05T12:25:18.349Z,47.358333
2023-05-05T12:30:18.227Z,49.633333
2023-05-05T12:35:18.004Z,50.133333
2023-05-05T12:40:18.154Z,50.362500
2023-05-05T12:45:18.022Z,49.145833
2023-05-05T12:50:18.053Z,49.858333
2023-05-05T12:55:18.190Z,52.183333
2023-05-05T13:00:18.184Z,50.754167
2023-05-05T13:05:18.367Z,52.050000
2023-05-05T13:10:18.126Z,51.950000
2023-05-05T13:15:18.268Z,50.241667
2023-05-05T13:20:18.103Z,50.150000
2023-05-05T13:25:18.147Z,49.775000
2023-05-05T13:30:18.029Z,47.870833
2023-05-05T13:35:18.350Z,48.083333
2023-05-05T13:40:18.561Z,47.550000
2023-05-05T13:45:18.526Z,49.766667
2023-05-05T13:50:18.350Z,46.633333
2023-05-05T13:55:18.301Z,46.970833
2023-05-05T14:00:18.401Z,48.716667
2023-05-05T14:05:18.500Z,48.854167
2023-05-05T14:10:18.205Z,48.470833
2023-05-05T14:15:18.282Z,48.833333
2023-05-05T14:20:18.186Z,47.475000
2023-05-05T14:25:18.263Z,48.137500
2023-05-05T14:30:18.328Z,47.725000
2023-05-05T14:35:18.199Z,48.358333
2023-05-05T14:40:18.167Z,49.087500
2023-05-05T14:45:18.034Z,50.054167
2023-05-05T14:50:18.444Z,49.700000
2023-05-05T14:55:18.851Z,48.416667
2023-05-05T15:00:18.256Z,53.200000
2023-05-05T15:05:18.102Z,48.987500
2023-05-05T15:10:19.748Z,49.950000
2023-05-05T15:15:18.093Z,51.412500
2023-05-05T15:20:18.024Z,50.766667
2023-05-05T15:25:18.220Z,50.683333
2023-05-05T15:30:18.141Z,53.275000
2023-05-05T15:35:18.248Z,51.516667
2023-05-05T15:40:18.054Z,50.741667
2023-05-05T15:45:18.252Z,51.412500
2023-05-05T15:50:18.289Z,51.416000
2023-05-05T15:55:18.110Z,52.945833
2023-05-05T16:00:18.546Z,51.183333
2023-05-05T16:05:18.528Z,52.366667
2023-05-05T16:10:18.066Z,52.920833
2023-05-05T16:15:18.477Z,52.500000
2023-05-05T16:20:18.431Z,53.445833
2023-05-05T16:25:18.309Z,55.345833
2023-05-05T16:30:18.219Z,57.262500
2023-05-05T16:35:18.645Z,55.400000
2023-05-05T16:40:18.411Z,55.579167
2023-05-05T16:45:18.376Z,57.466667
2023-05-05T16:50:18.483Z,56.000000
2023-05-05T16:55:18.071Z,55.766667
2023-05-05T17:00:18.057Z,54.862500
2023-05-05T17:05:18.380Z,57.683333
2023-05-05T17:10:18.246Z,59.033333
2023-05-05T17:15:17.946Z,59.725000
2023-05-05T17:20:18.271Z,63.375000
2023-05-05T17:25:18.203Z,66.425000
2023-05-05T17:30:18.047Z,68.554167
2023-05-05T17:35:18.112Z,67.529167
2023-05-05T17:40:18.083Z,66.066667
2023-05-05T17:45:17.984Z,66.441667
2023-05-05T17:50:18.075Z,66.712500
2023-05-05T17:55:18.428Z,66.725000
2023-05-05T18:00:17.974Z,66.283333
2023-05-05T18:05:18.042Z,67.529167
2023-05-05T18:10:18.049Z,68.220833
2023-05-05T18:15:18.376Z,67.733333
2023-05-05T18:20:17.967Z,69.368000
2023-05-05T18:25:18.151Z,68.695833
2023-05-05T18:30:17.994Z,70.004167
2023-05-05T18:35:18.014Z,70.258333
2023-05-05T18:40:18.187Z,72.275000
2023-05-05T18:45:18.093Z,72.216667
2023-05-05T18:50:18.282Z,72.866667
2023-05-05T18:55:18.197Z,74.795833
2023-05-05T19:00:17.940Z,77.570833
2023-05-05T19:05:18.105Z,79.096000
2023-05-05T19:10:18.345Z,81.270833
2023-05-05T19:15:17.951Z,83.233333
2023-05-05T19:20:18.245Z,84.175000
2023-05-05T19:25:18.410Z,83.766667
2023-05-05T19:30:18.688Z,83.941667
2023-05-05T19:35:18.362Z,84.433333
2023-05-05T19:40:18.007Z,85.162500
2023-05-05T19:45:18.260Z,85.283333
2023-05-05T19:50:18.116Z,85.856000
2023-05-05T19:55:18.025Z,86.370833
2023-05-05T20:00:18.155Z,86.816667
2023-05-05T20:05:18.365Z,87.300000
2023-05-05T20:10:18.445Z,87.425000
2023-05-05T20:15:18.076Z,87.241667
2023-05-05T20:20:18.105Z,87.587500
2023-05-05T20:25:18.039Z,87.887500
2023-05-05T20:30:17.992Z,87.862500
2023-05-05T20:35:17.990Z,88.150000
2023-05-05T20:40:18.026Z,88.516667
2023-05-05T20:45:17.971Z,88.866667
2023-05-05T20:50:18.396Z,88.975000
2023-05-05T20:55:17.894Z,88.970833
2023-05-05T21:00:18.006Z,88.995833
2023-05-05T21:05:18.118Z,89.466667
2023-05-05T21:10:18.005Z,89.704167
2023-05-05T21:15:18.091Z,89.737500
2023-05-05T21:20:18.053Z,89.850000
2023-05-05T21:25:17.928Z,89.883333
2023-05-05T21:30:18.295Z,90.091667
2023-05-05T21:35:18.094Z,90.272000
2023-05-05T21:40:18.136Z,90.600000
2023-05-05T21:45:18.139Z,90.379167
2023-05-05T21:50:17.916Z,90.650000
2023-05-05T21:55:17.870Z,90.687500
2023-05-05T22:00:18.030Z,90.250000
2023-05-05T22:05:18.001Z,90.425000
2023-05-05T22:10:18.406Z,90.395833
2023-05-05T22:15:18.223Z,90.300000
2023-05-05T22:20:18.280Z,90.284000
2023-05-05T22:25:18.159Z,90.428000
2023-05-05T22:30:18.149Z,90.508333
2023-05-05T22:35:17.929Z,90.575000
2023-05-05T22:40:18.262Z,90.604000
2023-05-05T22:45:18.356Z,90.733333
2023-05-05T22:50:18.492Z,90.900000
2023-05-05T22:55:17.887Z,90.870833
2023-05-05T23:00:17.983Z,90.787500
2023-05-05T23:05:18.036Z,90.758333
2023-05-05T23:10:17.971Z,90.920833
2023-05-05T23:15:17.927Z,91.116667
2023-05-05T23:20:18.017Z,91.154167
2023-05-05T23:25:17.972Z,91.016667
2023-05-05T23:30:18.110Z,90.891667
2023-05-05T23:35:18.619Z,91.033333
2023-05-05T23:40:17.928Z,91.241667
2023-05-05T23:45:19.416Z,91.304167
2023-05-05T23:50:18.096Z,91.425000
2023-05-05T23:55:18.266Z,91.416667
